Time;durP1;ratioP1;P1;durP2;ratioP2;P2;SDS_P1;SDS_P2;PMS_P1;PMS_P2;Temp;Humidity;BMP_temperature;BMP_pressure;BME280_temperature;BME280_humidity;BME280_pressure;Samples;Min_cycle;Max_cycle;Signal;HPM_P1;HPM_P2
2022/04/15 00:00:45;;;;;;;15.57;6.63;;;;;;;;;;4991079;28;20030;-67
2022/04/15 00:03:11;;;;;;;15.27;5.28;;;;;;;;;;4989155;28;20297;-66
2022/04/15 00:05:37;;;;;;;11.68;6.15;;;;;;;;;;4987804;28;20069;-67
2022/04/15 00:08:06;;;;;;;12.80;6.63;;;;;;;;;;4989256;28;20026;-67
2022/04/15 00:10:32;;;;;;;14.45;6.95;;;;;;;;;;4981386;28;21375;-66
2022/04/15 00:12:58;;;;;;;12.63;6.15;;;;;;;;;;4971729;28;20057;-66
2022/04/15 00:15:23;;;;;;;14.48;6.25;;;;;;;;;;4991626;28;20436;-66
2022/04/15 00:17:49;;;;;;;16.13;6.57;;;;;;;;;;4988028;28;20157;-67
2022/04/15 00:20:14;;;;;;;16.40;6.10;;;;;;;;;;4990280;28;20030;-67
2022/04/15 00:22:40;;;;;;;10.77;6.28;;;;;;;;;;4984490;23;20050;-66
2022/04/15 00:25:05;;;;;;;12.43;6.43;;;;;;;;;;4969104;28;20027;-66
2022/04/15 00:27:31;;;;;;;11.52;6.45;;;;;;;;;;4971233;28;20033;-66
2022/04/15 00:29:56;;;;;;;13.20;6.88;;;;;;;;;;4970675;28;20042;-66
2022/04/15 00:32:21;;;;;;;13.82;7.05;;;;;;;;;;4969887;28;20019;-66
2022/04/15 00:34:46;;;;;;;14.33;6.77;;;;;;;;;;4971155;28;20050;-66
2022/04/15 00:37:11;;;;;;;11.43;6.40;;;;;;;;;;4972415;28;20750;-66
2022/04/15 00:39:39;;;;;;;13.90;6.57;;;;;;;;;;4970135;28;20270;-66
2022/04/15 00:42:07;;;;;;;19.50;6.82;;;;;;;;;;4969711;28;20294;-66
2022/04/15 00:44:32;;;;;;;15.18;6.45;;;;;;;;;;4971280;28;20566;-66
2022/04/15 00:46:57;;;;;;;9.37;6.00;;;;;;;;;;4971720;28;20114;-67
2022/04/15 00:49:23;;;;;;;11.30;6.13;;;;;;;;;;4971036;28;20293;-66
2022/04/15 00:51:49;;;;;;;15.60;6.38;;;;;;;;;;4969389;28;20365;-66
2022/04/15 00:54:15;;;;;;;11.32;6.63;;;;;;;;;;4969689;28;20115;-66
2022/04/15 00:56:41;;;;;;;15.38;7.15;;;;;;;;;;4972001;28;20026;-66
2022/04/15 00:59:07;;;;;;;17.50;7.53;;;;;;;;;;4970962;28;20027;-66
2022/04/15 01:01:33;;;;;;;21.25;7.07;;;;;;;;;;4966054;28;20050;-66
2022/04/15 01:03:59;;;;;;;13.35;6.72;;;;;;;;;;4970951;28;20451;-66
2022/04/15 01:06:28;;;;;;;15.93;7.13;;;;;;;;;;4964252;28;20062;-66
2022/04/15 01:08:55;;;;;;;12.98;6.97;;;;;;;;;;4969767;28;20411;-66
2022/04/15 01:11:21;;;;;;;10.60;6.40;;;;;;;;;;4970722;28;20018;-66
2022/04/15 01:13:47;;;;;;;10.60;6.50;;;;;;;;;;4970727;28;20080;-65
2022/04/15 01:16:13;;;;;;;23.55;7.25;;;;;;;;;;4971868;28;20022;-66
2022/04/15 01:18:39;;;;;;;15.93;6.85;;;;;;;;;;4952370;28;20030;-66
2022/04/15 01:21:05;;;;;;;15.95;6.50;;;;;;;;;;4969582;28;20031;-66
2022/04/15 01:23:30;;;;;;;17.60;7.05;;;;;;;;;;4971005;28;20391;-66
2022/04/15 01:25:55;;;;;;;18.50;7.65;;;;;;;;;;4970918;28;20102;-67
2022/04/15 01:28:20;;;;;;;15.50;6.97;;;;;;;;;;4970805;28;20391;-66
2022/04/15 01:30:46;;;;;;;19.92;7.32;;;;;;;;;;4972902;28;20293;-66
2022/04/15 01:33:11;;;;;;;15.23;7.10;;;;;;;;;;4973532;28;20035;-66
2022/04/15 01:35:36;;;;;;;11.95;7.13;;;;;;;;;;4977014;28;20073;-66
2022/04/15 01:38:04;;;;;;;16.95;6.78;;;;;;;;;;4972717;28;20030;-66
2022/04/15 01:40:29;;;;;;;11.35;6.75;;;;;;;;;;4974383;28;20467;-66
2022/04/15 01:42:54;;;;;;;15.32;7.13;;;;;;;;;;4972319;28;20081;-66
2022/04/15 01:45:20;;;;;;;14.23;6.80;;;;;;;;;;4976017;28;20023;-66
2022/04/15 01:47:45;;;;;;;10.40;6.60;;;;;;;;;;4974213;28;20468;-66
2022/04/15 01:50:11;;;;;;;15.13;7.85;;;;;;;;;;4973661;28;20281;-66
2022/04/15 01:52:36;;;;;;;15.50;6.93;;;;;;;;;;4973587;28;20015;-67
2022/04/15 01:55:01;;;;;;;14.32;6.53;;;;;;;;;;4972933;28;20038;-66
2022/04/15 01:57:27;;;;;;;14.43;6.30;;;;;;;;;;4976949;28;20518;-66
2022/04/15 01:59:52;;;;;;;22.25;7.70;;;;;;;;;;4973888;28;20046;-66
2022/04/15 02:02:17;;;;;;;12.13;5.90;;;;;;;;;;4973101;28;20076;-66
2022/04/15 02:04:42;;;;;;;12.32;5.75;;;;;;;;;;4974337;28;20270;-66
2022/04/15 02:07:08;;;;;;;9.93;5.97;;;;;;;;;;4955543;28;20554;-66
2022/04/15 02:09:33;;;;;;;11.13;7.05;;;;;;;;;;4973952;28;20262;-66
2022/04/15 02:11:59;;;;;;;11.95;7.15;;;;;;;;;;4972675;28;20038;-66
2022/04/15 02:14:24;;;;;;;15.38;7.00;;;;;;;;;;4973569;28;20022;-66
2022/04/15 02:16:53;;;;;;;15.47;8.27;;;;;;;;;;4974994;28;20823;-67
2022/04/15 02:19:22;;;;;;;16.43;7.53;;;;;;;;;;4973323;28;20274;-66
2022/04/15 02:21:48;;;;;;;14.55;7.40;;;;;;;;;;4975248;28;20080;-66
2022/04/15 02:24:14;;;;;;;17.40;7.78;;;;;;;;;;4972830;28;20058;-66
2022/04/15 02:26:39;;;;;;;12.15;7.32;;;;;;;;;;4974380;28;20486;-66
2022/04/15 02:29:04;;;;;;;18.63;6.97;;;;;;;;;;4973262;28;20149;-66
2022/04/15 02:31:29;;;;;;;18.30;8.70;;;;;;;;;;4971614;28;20077;-66
2022/04/15 02:33:55;;;;;;;14.93;7.53;;;;;;;;;;4973656;28;20763;-66
2022/04/15 02:36:20;;;;;;;15.38;7.80;;;;;;;;;;4971908;28;20019;-66
2022/04/15 02:38:45;;;;;;;15.85;7.85;;;;;;;;;;4973577;28;20467;-66
2022/04/15 02:41:11;;;;;;;23.93;8.30;;;;;;;;;;4970055;28;20165;-66
2022/04/15 02:43:37;;;;;;;22.95;9.68;;;;;;;;;;4971347;28;20293;-66
2022/04/15 02:46:03;;;;;;;17.33;8.32;;;;;;;;;;4972753;28;20019;-66
2022/04/15 02:48:31;;;;;;;18.80;7.97;;;;;;;;;;4971697;28;20023;-66
2022/04/15 02:50:57;;;;;;;13.70;8.45;;;;;;;;;;4972314;28;20447;-66
2022/04/15 02:53:23;;;;;;;14.43;8.48;;;;;;;;;;4973338;28;20023;-67
2022/04/15 02:55:48;;;;;;;18.45;7.95;;;;;;;;;;4972058;28;20034;-66
2022/04/15 02:58:13;;;;;;;17.50;7.70;;;;;;;;;;4970926;28;20841;-66
2022/04/15 03:00:38;;;;;;;19.27;8.67;;;;;;;;;;4971065;28;20033;-66
2022/04/15 03:03:04;;;;;;;25.65;7.95;;;;;;;;;;4971231;28;20266;-66
2022/04/15 03:05:30;;;;;;;14.30;8.10;;;;;;;;;;4972607;28;20026;-66
2022/04/15 03:07:55;;;;;;;11.27;7.25;;;;;;;;;;4972145;28;20023;-66
2022/04/15 03:10:20;;;;;;;14.70;7.85;;;;;;;;;;4970370;28;20502;-66
2022/04/15 03:12:45;;;;;;;14.98;8.27;;;;;;;;;;4971211;28;20033;-66
2022/04/15 03:15:11;;;;;;;11.85;7.40;;;;;;;;;;4971945;28;20023;-66
2022/04/15 03:17:36;;;;;;;17.00;8.47;;;;;;;;;;4972110;28;20027;-66
2022/04/15 03:20:02;;;;;;;17.58;7.63;;;;;;;;;;4971960;28;20357;-66
2022/04/15 03:22:28;;;;;;;15.05;7.68;;;;;;;;;;4970890;28;20018;-66
2022/04/15 03:24:53;;;;;;;17.20;7.78;;;;;;;;;;4972157;28;20026;-65
2022/04/15 03:27:18;;;;;;;18.80;8.30;;;;;;;;;;4972165;28;20041;-66
2022/04/15 03:29:43;;;;;;;13.70;7.07;;;;;;;;;;4971746;28;20464;-66
2022/04/15 03:32:09;;;;;;;15.75;7.78;;;;;;;;;;4970107;28;20365;-66
2022/04/15 03:34:34;;;;;;;13.45;7.75;;;;;;;;;;4972415;28;20035;-66
2022/04/15 03:36:59;;;;;;;14.23;7.50;;;;;;;;;;4970688;28;20158;-66
2022/04/15 03:39:24;;;;;;;20.70;8.47;;;;;;;;;;4971614;28;20282;-66
2022/04/15 03:41:49;;;;;;;13.23;7.97;;;;;;;;;;4969590;28;20286;-66
2022/04/15 03:44:15;;;;;;;15.20;8.17;;;;;;;;;;4972165;28;20266;-65
2022/04/15 03:46:40;;;;;;;13.97;8.30;;;;;;;;;;4973231;28;20349;-66
2022/04/15 03:49:05;;;;;;;17.17;7.93;;;;;;;;;;4969854;28;20285;-65
2022/04/15 03:51:30;;;;;;;14.75;8.65;;;;;;;;;;4978000;28;20031;-66
2022/04/15 03:53:56;;;;;;;16.05;8.55;;;;;;;;;;4972001;28;20030;-66
2022/04/15 03:56:21;;;;;;;18.65;8.52;;;;;;;;;;4971321;28;20053;-65
2022/04/15 03:58:46;;;;;;;23.65;8.82;;;;;;;;;;4971074;28;20443;-66
2022/04/15 04:01:11;;;;;;;17.83;8.37;;;;;;;;;;4970239;28;20110;-66
2022/04/15 04:03:36;;;;;;;18.25;8.60;;;;;;;;;;4971271;28;20270;-66
2022/04/15 04:06:01;;;;;;;15.93;7.90;;;;;;;;;;4974052;28;20031;-66
2022/04/15 04:08:27;;;;;;;22.93;8.00;;;;;;;;;;4971865;28;20848;-65
2022/04/15 04:10:52;;;;;;;14.77;8.57;;;;;;;;;;4970404;28;20270;-65
2022/04/15 04:13:17;;;;;;;14.83;8.07;;;;;;;;;;4973047;28;20031;-65
2022/04/15 04:15:42;;;;;;;21.63;8.32;;;;;;;;;;4970936;28;20634;-66
2022/04/15 04:18:09;;;;;;;11.97;7.73;;;;;;;;;;4971337;28;20030;-66
2022/04/15 04:20:35;;;;;;;20.40;7.22;;;;;;;;;;4971482;28;20290;-66
2022/04/15 04:23:00;;;;;;;12.77;7.25;;;;;;;;;;4975555;28;20026;-65
2022/04/15 04:25:25;;;;;;;17.30;8.57;;;;;;;;;;4973519;28;20014;-65
2022/04/15 04:27:50;;;;;;;14.73;8.48;;;;;;;;;;4970718;28;20023;-66
2022/04/15 04:30:16;;;;;;;17.02;8.52;;;;;;;;;;4970860;28;20026;-66
2022/04/15 04:32:42;;;;;;;14.95;7.80;;;;;;;;;;4969443;28;20025;-66
2022/04/15 04:35:08;;;;;;;17.75;8.10;;;;;;;;;;4970990;28;20487;-66
2022/04/15 04:37:33;;;;;;;16.92;8.20;;;;;;;;;;4972115;28;20062;-65
2022/04/15 04:39:58;;;;;;;21.10;7.30;;;;;;;;;;4968959;28;20395;-66
2022/04/15 04:42:24;;;;;;;17.85;8.50;;;;;;;;;;4973978;28;20039;-67
2022/04/15 04:44:50;;;;;;;15.02;7.88;;;;;;;;;;4979458;28;20017;-65
2022/04/15 04:47:16;;;;;;;15.35;8.35;;;;;;;;;;4971091;28;20045;-65
2022/04/15 04:49:41;;;;;;;25.27;8.60;;;;;;;;;;4970335;28;20527;-65
2022/04/15 04:52:06;;;;;;;22.23;9.03;;;;;;;;;;4970512;28;20050;-66
2022/04/15 04:54:32;;;;;;;15.43;8.10;;;;;;;;;;4970203;28;20278;-65
2022/04/15 04:56:57;;;;;;;24.05;8.80;;;;;;;;;;4971672;28;20026;-65
2022/04/15 04:59:25;;;;;;;15.82;8.50;;;;;;;;;;4979075;28;20081;-66
2022/04/15 05:01:50;;;;;;;23.50;8.50;;;;;;;;;;4967884;28;20031;-65
2022/04/15 05:04:15;;;;;;;17.52;9.15;;;;;;;;;;4961575;28;20423;-66
2022/04/15 05:06:40;;;;;;;23.67;9.20;;;;;;;;;;4973906;28;20019;-66
2022/04/15 05:09:06;;;;;;;20.90;9.20;;;;;;;;;;4969097;28;20274;-66
2022/04/15 05:11:31;;;;;;;22.77;10.68;;;;;;;;;;4970420;28;20282;-65
2022/04/15 05:13:56;;;;;;;18.47;9.67;;;;;;;;;;4970253;28;20427;-65
2022/04/15 05:16:21;;;;;;;19.93;9.43;;;;;;;;;;4969376;28;20289;-65
2022/04/15 05:18:47;;;;;;;20.57;9.63;;;;;;;;;;4969603;28;20678;-65
2022/04/15 05:21:13;;;;;;;16.52;8.70;;;;;;;;;;4969293;28;20289;-65
2022/04/15 05:23:38;;;;;;;17.33;8.73;;;;;;;;;;4972138;28;20027;-65
2022/04/15 05:26:03;;;;;;;18.02;8.40;;;;;;;;;;4970603;28;20038;-65
2022/04/15 05:28:30;;;;;;;21.80;8.57;;;;;;;;;;4969325;28;20522;-66
2022/04/15 05:30:55;;;;;;;14.20;8.25;;;;;;;;;;4969256;28;20721;-66
2022/04/15 05:33:20;;;;;;;23.27;8.40;;;;;;;;;;4969554;28;20031;-65
2022/04/15 05:35:46;;;;;;;13.10;8.13;;;;;;;;;;4967169;28;20046;-66
2022/04/15 05:38:11;;;;;;;15.18;8.55;;;;;;;;;;4968417;28;20034;-65
2022/04/15 05:40:36;;;;;;;28.47;10.03;;;;;;;;;;4968396;28;20039;-66
2022/04/15 05:43:01;;;;;;;20.90;9.98;;;;;;;;;;4967810;28;20281;-66
2022/04/15 05:45:26;;;;;;;20.30;9.30;;;;;;;;;;4966946;28;20078;-66
2022/04/15 05:47:57;;;;;;;17.13;8.93;;;;;;;;;;4967181;28;20274;-65
2022/04/15 05:50:22;;;;;;;;;;;;;;;;;;4972062;28;20335;-65
2022/04/15 05:52:47;;;;;;;15.93;9.05;;;;;;;;;;4969121;28;19910;-65
2022/04/15 05:55:12;;;;;;;20.52;9.55;;;;;;;;;;4969765;28;20089;-66
2022/04/15 05:57:37;;;;;;;15.82;9.73;;;;;;;;;;4969898;28;20042;-65
2022/04/15 06:00:04;;;;;;;18.58;9.77;;;;;;;;;;4975365;28;20669;-65
2022/04/15 06:02:29;;;;;;;19.52;8.45;;;;;;;;;;4970228;28;20042;-66
2022/04/15 06:04:54;;;;;;;21.87;10.37;;;;;;;;;;4970340;28;20443;-65
2022/04/15 06:07:19;;;;;;;27.42;12.02;;;;;;;;;;4971015;28;20266;-66
2022/04/15 06:09:44;;;;;;;31.23;13.80;;;;;;;;;;4969196;28;20015;-65
2022/04/15 06:12:10;;;;;;;28.23;13.23;;;;;;;;;;4969674;28;21059;-65
2022/04/15 06:14:36;;;;;;;35.13;13.18;;;;;;;;;;4972209;28;20376;-66
2022/04/15 06:17:01;;;;;;;26.50;13.95;;;;;;;;;;4972709;28;20018;-65
2022/04/15 06:19:26;;;;;;;31.15;15.50;;;;;;;;;;4973030;28;20022;-65
2022/04/15 06:21:52;;;;;;;34.00;17.00;;;;;;;;;;4973712;28;20031;-66
2022/04/15 06:24:17;;;;;;;36.63;17.30;;;;;;;;;;4978075;28;20025;-66
2022/04/15 06:26:42;;;;;;;36.03;16.80;;;;;;;;;;4974326;28;20041;-65
2022/04/15 06:29:08;;;;;;;37.00;17.60;;;;;;;;;;4978242;28;20029;-66
2022/04/15 06:31:33;;;;;;;29.93;15.87;;;;;;;;;;4971592;28;20038;-66
2022/04/15 06:33:58;;;;;;;30.60;16.10;;;;;;;;;;4971184;28;20277;-66
2022/04/15 06:36:23;;;;;;;31.85;17.00;;;;;;;;;;4974162;28;20349;-66
2022/04/15 06:38:48;;;;;;;33.27;18.03;;;;;;;;;;4976749;28;20038;-66
2022/04/15 06:41:14;;;;;;;42.05;18.35;;;;;;;;;;4973425;28;20282;-66
2022/04/15 06:43:39;;;;;;;35.88;17.48;;;;;;;;;;4977263;28;20379;-67
2022/04/15 06:46:05;;;;;;;35.78;19.35;;;;;;;;;;4972610;28;20659;-67
2022/04/15 06:48:30;;;;;;;32.13;17.60;;;;;;;;;;4972068;28;20479;-67
2022/04/15 06:50:55;;;;;;;34.10;16.52;;;;;;;;;;4972852;28;20377;-67
2022/04/15 06:53:23;;;;;;;29.65;16.13;;;;;;;;;;4974524;28;20422;-67
2022/04/15 06:55:48;;;;;;;33.15;16.35;;;;;;;;;;4971246;28;20132;-65
2022/04/15 06:58:14;;;;;;;36.58;16.20;;;;;;;;;;4972441;28;20048;-65
2022/04/15 07:00:39;;;;;;;28.53;15.43;;;;;;;;;;4971124;28;20027;-65
2022/04/15 07:03:04;;;;;;;27.00;15.13;;;;;;;;;;4969942;28;20277;-65
2022/04/15 07:05:30;;;;;;;28.52;14.82;;;;;;;;;;4969975;28;20015;-66
2022/04/15 07:07:55;;;;;;;24.40;14.10;;;;;;;;;;4969453;28;20033;-67
2022/04/15 07:10:20;;;;;;;32.43;15.27;;;;;;;;;;4969112;28;20305;-66
2022/04/15 07:12:45;;;;;;;29.33;16.13;;;;;;;;;;4970619;28;20699;-66
2022/04/15 07:15:10;;;;;;;27.97;14.97;;;;;;;;;;4973804;28;20763;-66
2022/04/15 07:17:35;;;;;;;28.67;16.55;;;;;;;;;;4970213;28;20023;-66
2022/04/15 07:20:01;;;;;;;32.63;16.17;;;;;;;;;;4970857;28;20038;-67
2022/04/15 07:22:26;;;;;;;29.35;18.30;;;;;;;;;;4969703;28;20034;-67
2022/04/15 07:24:51;;;;;;;29.97;19.00;;;;;;;;;;4969521;28;20031;-67
2022/04/15 07:27:17;;;;;;;34.08;20.00;;;;;;;;;;4966411;28;20270;-67
2022/04/15 07:29:44;;;;;;;30.45;16.98;;;;;;;;;;4972433;28;20450;-66
2022/04/15 07:32:10;;;;;;;33.28;19.20;;;;;;;;;;4968339;28;20038;-67
2022/04/15 07:34:35;;;;;;;46.60;25.67;;;;;;;;;;4970320;28;20015;-67
2022/04/15 07:37:03;;;;;;;48.90;27.25;;;;;;;;;;4970031;28;20046;-65
2022/04/15 07:39:28;;;;;;;64.97;30.73;;;;;;;;;;4971698;28;20110;-68
2022/04/15 07:41:53;;;;;;;59.65;29.52;;;;;;;;;;4970042;28;20149;-66
2022/04/15 07:44:19;;;;;;;59.90;30.88;;;;;;;;;;4968767;28;20049;-67
2022/04/15 07:46:44;;;;;;;60.33;28.95;;;;;;;;;;4970319;28;20026;-66
2022/04/15 07:49:10;;;;;;;52.58;24.95;;;;;;;;;;4970085;28;20426;-65
2022/04/15 07:51:36;;;;;;;55.42;25.98;;;;;;;;;;4968619;28;20034;-67
2022/04/15 07:54:02;;;;;;;53.08;24.90;;;;;;;;;;4970440;28;20503;-66
2022/04/15 07:56:27;;;;;;;51.80;24.80;;;;;;;;;;4970177;28;20142;-66
2022/04/15 07:58:53;;;;;;;58.42;27.20;;;;;;;;;;4969989;28;20109;-66
2022/04/15 08:01:19;;;;;;;53.22;24.60;;;;;;;;;;4969283;28;20053;-66
2022/04/15 08:03:44;;;;;;;42.88;21.73;;;;;;;;;;4970024;28;20023;-65
2022/04/15 08:06:10;;;;;;;40.42;19.95;;;;;;;;;;4970073;28;20126;-67
2022/04/15 08:08:35;;;;;;;39.35;18.92;;;;;;;;;;4970194;28;20104;-67
2022/04/15 08:11:01;;;;;;;40.90;17.17;;;;;;;;;;4968309;28;20073;-66
2022/04/15 08:13:26;;;;;;;39.35;17.92;;;;;;;;;;4975365;28;20281;-67
2022/04/15 08:15:53;;;;;;;33.70;15.43;;;;;;;;;;4951776;28;20026;-66
2022/04/15 08:18:22;;;;;;;38.47;15.40;;;;;;;;;;4969782;28;20388;-66
2022/04/15 08:20:48;;;;;;;29.30;13.60;;;;;;;;;;4969408;28;20160;-66
2022/04/15 08:23:13;;;;;;;31.20;13.38;;;;;;;;;;4969615;28;20413;-66
2022/04/15 08:25:39;;;;;;;26.63;12.82;;;;;;;;;;4973949;28;20094;-66
2022/04/15 08:28:05;;;;;;;26.50;12.73;;;;;;;;;;4974595;28;20054;-66
2022/04/15 08:30:34;;;;;;;28.98;13.32;;;;;;;;;;4972694;28;20030;-67
2022/04/15 08:33:00;;;;;;;21.42;12.25;;;;;;;;;;4969172;28;20034;-66
2022/04/15 08:35:25;;;;;;;23.45;12.18;;;;;;;;;;4967325;28;20023;-66
2022/04/15 08:37:50;;;;;;;25.42;13.13;;;;;;;;;;4976702;28;20023;-67
2022/04/15 08:40:15;;;;;;;22.67;12.57;;;;;;;;;;4973524;28;20109;-66
2022/04/15 08:42:41;;;;;;;30.75;15.48;;;;;;;;;;4967841;28;20624;-66
2022/04/15 08:45:08;;;;;;;28.83;13.35;;;;;;;;;;4977375;28;20022;-66
2022/04/15 08:47:33;;;;;;;29.45;13.68;;;;;;;;;;4978121;28;20022;-66
2022/04/15 08:49:59;;;;;;;34.05;17.15;;;;;;;;;;4974285;28;20030;-67
2022/04/15 08:52:24;;;;;;;31.98;16.63;;;;;;;;;;4972608;28;20098;-66
2022/04/15 08:54:49;;;;;;;31.75;17.08;;;;;;;;;;4975136;28;20029;-67
2022/04/15 08:57:14;;;;;;;30.67;15.53;;;;;;;;;;4967498;28;20042;-66
2022/04/15 08:59:40;;;;;;;28.43;16.10;;;;;;;;;;4952255;28;20361;-66
2022/04/15 09:02:05;;;;;;;32.08;16.10;;;;;;;;;;4969362;28;20282;-66
2022/04/15 09:04:31;;;;;;;28.38;15.38;;;;;;;;;;4969457;28;20032;-66
2022/04/15 09:06:57;;;;;;;30.55;14.68;;;;;;;;;;4969607;28;21710;-67
2022/04/15 09:09:29;;;;;;;31.63;15.65;;;;;;;;;;4982526;28;20026;-67
2022/04/15 09:11:56;;;;;;;21.98;13.13;;;;;;;;;;4977680;28;20026;-66
2022/04/15 09:14:22;;;;;;;22.33;12.98;;;;;;;;;;4968824;28;20506;-66
2022/04/15 09:16:47;;;;;;;20.98;11.90;;;;;;;;;;4968494;28;20035;-66
2022/04/15 09:19:13;;;;;;;21.00;12.20;;;;;;;;;;4970009;28;20050;-66
2022/04/15 09:21:40;;;;;;;19.63;11.57;;;;;;;;;;4973010;28;20031;-66
2022/04/15 09:24:07;;;;;;;20.90;11.13;;;;;;;;;;4973139;28;20412;-66
2022/04/15 09:26:32;;;;;;;21.17;11.90;;;;;;;;;;4972370;28;20500;-66
2022/04/15 09:28:58;;;;;;;20.08;11.93;;;;;;;;;;4974771;28;20030;-66
2022/04/15 09:31:23;;;;;;;21.38;12.27;;;;;;;;;;4974159;28;20030;-67
2022/04/15 09:33:55;;;;;;;22.48;11.93;;;;;;;;;;4975207;28;20034;-66
2022/04/15 09:36:24;;;;;;;21.05;12.13;;;;;;;;;;4972682;28;20019;-66
2022/04/15 09:38:50;;;;;;;22.83;12.70;;;;;;;;;;4974677;28;20052;-66
2022/04/15 09:41:19;;;;;;;24.15;14.48;;;;;;;;;;4966360;28;20038;-67
2022/04/15 09:43:52;;;;;;;25.52;13.27;;;;;;;;;;4969920;28;20034;-67
2022/04/15 09:46:17;;;;;;;21.90;12.52;;;;;;;;;;4973998;28;20014;-67
2022/04/15 09:48:56;;;;;;;22.83;13.37;;;;;;;;;;4974451;28;20086;-67
2022/04/15 09:51:21;;;;;;;18.23;11.48;;;;;;;;;;4983945;28;20277;-67
2022/04/15 09:53:47;;;;;;;18.95;11.10;;;;;;;;;;4967008;28;20039;-67
2022/04/15 09:56:12;;;;;;;17.63;11.10;;;;;;;;;;4978347;28;20042;-67
2022/04/15 09:58:39;;;;;;;13.00;9.20;;;;;;;;;;4974656;28;20054;-67
2022/04/15 10:01:05;;;;;;;15.63;9.93;;;;;;;;;;4977426;28;20023;-66
2022/04/15 10:03:34;;;;;;;15.10;10.10;;;;;;;;;;4972881;28;20122;-68
2022/04/15 10:06:00;;;;;;;13.63;9.70;;;;;;;;;;4973561;28;20022;-67
2022/04/15 10:08:26;;;;;;;12.07;8.35;;;;;;;;;;4975038;28;20077;-66
2022/04/15 10:10:52;;;;;;;17.30;9.85;;;;;;;;;;4977664;28;20037;-66
2022/04/15 10:13:18;;;;;;;12.32;7.50;;;;;;;;;;4985363;28;20018;-66
2022/04/15 10:15:45;;;;;;;11.15;7.65;;;;;;;;;;4972689;28;20026;-66
2022/04/15 10:18:10;;;;;;;14.15;7.43;;;;;;;;;;4973226;28;20046;-67
2022/04/15 10:20:38;;;;;;;12.33;7.13;;;;;;;;;;4973501;28;20054;-66
2022/04/15 10:23:11;;;;;;;11.65;7.50;;;;;;;;;;4972805;28;20373;-66
2022/04/15 10:25:37;;;;;;;14.50;8.13;;;;;;;;;;4977700;28;20014;-66
2022/04/15 10:28:16;;;;;;;14.15;8.95;;;;;;;;;;4971878;28;20043;-66
2022/04/15 10:30:54;;;;;;;14.25;8.50;;;;;;;;;;4967286;28;20027;-66
2022/04/15 10:33:30;;;;;;;9.95;7.68;;;;;;;;;;4964523;28;20034;-66
2022/04/15 10:35:58;;;;;;;10.82;6.95;;;;;;;;;;4976103;28;20026;-67
2022/04/15 10:38:24;;;;;;;15.27;8.05;;;;;;;;;;4972442;28;20023;-67
2022/04/15 10:40:49;;;;;;;10.30;6.47;;;;;;;;;;4968554;28;20027;-66
2022/04/15 10:43:29;;;;;;;10.70;6.78;;;;;;;;;;4983048;28;20073;-67
2022/04/15 10:46:13;;;;;;;9.55;5.68;;;;;;;;;;4973360;28;20509;-67
2022/04/15 10:48:39;;;;;;;11.10;6.03;;;;;;;;;;4972482;28;20035;-66
2022/04/15 10:51:25;;;;;;;8.88;6.07;;;;;;;;;;4980748;28;20461;-66
2022/04/15 10:53:50;;;;;;;6.82;4.47;;;;;;;;;;4978451;28;20030;-66
2022/04/15 10:56:18;;;;;;;7.10;4.75;;;;;;;;;;4979227;28;20501;-66
2022/04/15 11:01:57;;;;;;;6.78;4.50;;;;;;;;;;4973072;28;20030;-66
2022/04/15 11:04:23;;;;;;;7.13;4.35;;;;;;;;;;4980053;28;20325;-66
2022/04/15 11:06:49;;;;;;;9.15;5.35;;;;;;;;;;4986483;28;20053;-66
2022/04/15 11:09:15;;;;;;;6.78;4.50;;;;;;;;;;4987299;28;20519;-66
2022/04/15 11:11:42;;;;;;;7.00;4.70;;;;;;;;;;4984632;28;20039;-66
2022/04/15 11:14:11;;;;;;;8.10;4.90;;;;;;;;;;4959134;28;20387;-66
2022/04/15 11:16:39;;;;;;;10.07;5.05;;;;;;;;;;4975479;28;20097;-66
2022/04/15 11:19:04;;;;;;;7.53;4.90;;;;;;;;;;4982466;28;20126;-66
2022/04/15 11:21:32;;;;;;;8.73;4.28;;;;;;;;;;4976728;28;20105;-66
2022/04/15 11:24:01;;;;;;;8.82;4.63;;;;;;;;;;4982852;28;20462;-67
2022/04/15 11:26:27;;;;;;;4.70;4.15;;;;;;;;;;4977787;28;20537;-66
2022/04/15 11:28:53;;;;;;;8.18;4.45;;;;;;;;;;4975975;28;20011;-66
2022/04/15 11:31:18;;;;;;;9.13;5.05;;;;;;;;;;4971847;28;20027;-66
2022/04/15 11:33:43;;;;;;;7.07;5.03;;;;;;;;;;4975233;28;20021;-66
2022/04/15 11:36:08;;;;;;;7.00;4.90;;;;;;;;;;4971882;28;20114;-66
2022/04/15 11:38:34;;;;;;;8.73;5.00;;;;;;;;;;4980636;28;20273;-66
2022/04/15 11:40:59;;;;;;;8.15;4.63;;;;;;;;;;4978199;28;20030;-66
2022/04/15 11:43:27;;;;;;;7.65;5.35;;;;;;;;;;4984051;28;20026;-66
2022/04/15 11:45:52;;;;;;;8.05;5.13;;;;;;;;;;4971907;28;20118;-66
2022/04/15 11:48:24;;;;;;;8.23;5.13;;;;;;;;;;4978933;28;20049;-66
2022/04/15 11:50:51;;;;;;;6.60;5.22;;;;;;;;;;4990042;28;20253;-66
2022/04/15 11:53:16;;;;;;;6.22;4.93;;;;;;;;;;4976556;28;20025;-66
2022/04/15 11:55:55;;;;;;;6.78;5.10;;;;;;;;;;4969571;28;20027;-67
2022/04/15 11:58:21;;;;;;;8.32;5.22;;;;;;;;;;4967869;28;20101;-67
2022/04/15 12:00:57;;;;;;;10.10;6.00;;;;;;;;;;4970556;28;20089;-66
2022/04/15 12:03:22;;;;;;;8.48;5.47;;;;;;;;;;4969609;28;20050;-68
2022/04/15 12:05:52;;;;;;;8.52;5.35;;;;;;;;;;4966979;28;20043;-65
2022/04/15 12:08:18;;;;;;;;;;;;;;;;;;4977792;28;20077;-67
2022/04/15 12:10:44;;;;;;;9.17;5.40;;;;;;;;;;4979261;28;19910;-66
2022/04/15 12:13:09;;;;;;;8.52;6.95;;;;;;;;;;4968841;28;20280;-66
2022/04/15 12:15:35;;;;;;;9.75;5.97;;;;;;;;;;4969517;28;20019;-67
2022/04/15 12:18:04;;;;;;;8.95;5.63;;;;;;;;;;4969810;28;20125;-65
2022/04/15 12:20:29;;;;;;;6.93;4.85;;;;;;;;;;4968574;28;20028;-65
2022/04/15 12:22:58;;;;;;;8.85;5.65;;;;;;;;;;4977104;28;20030;-65
2022/04/15 12:25:23;;;;;;;7.88;5.25;;;;;;;;;;4973625;28;20018;-66
2022/04/15 12:27:49;;;;;;;13.38;5.10;;;;;;;;;;4975895;28;20041;-66
2022/04/15 12:30:33;;;;;;;9.27;5.38;;;;;;;;;;4970798;28;20023;-66
2022/04/15 12:33:08;;;;;;;8.73;5.20;;;;;;;;;;4969941;28;20026;-66
2022/04/15 12:35:35;;;;;;;9.43;5.55;;;;;;;;;;4969562;28;20053;-66
2022/04/15 12:38:00;;;;;;;8.65;4.75;;;;;;;;;;4973482;28;20014;-66
2022/04/15 12:40:30;;;;;;;13.38;5.45;;;;;;;;;;4977047;28;20507;-66
2022/04/15 12:42:55;;;;;;;9.68;5.93;;;;;;;;;;4969778;28;20051;-66
2022/04/15 12:45:21;;;;;;;13.63;6.25;;;;;;;;;;4977793;28;20027;-66
2022/04/15 12:47:58;;;;;;;10.20;6.30;;;;;;;;;;4971932;28;20054;-66
2022/04/15 12:50:25;;;;;;;13.75;5.20;;;;;;;;;;4978165;28;20415;-66
2022/04/15 12:52:51;;;;;;;12.98;5.93;;;;;;;;;;4973283;28;20043;-66
2022/04/15 12:55:23;;;;;;;8.82;5.25;;;;;;;;;;4976878;28;20467;-66
2022/04/15 12:57:48;;;;;;;9.77;4.75;;;;;;;;;;4973826;28;20077;-66
2022/04/15 13:00:14;;;;;;;9.05;4.78;;;;;;;;;;4969486;28;20022;-66
2022/04/15 13:02:39;;;;;;;8.63;5.32;;;;;;;;;;4979010;28;20034;-66
2022/04/15 13:05:06;;;;;;;8.07;5.38;;;;;;;;;;4977526;28;20023;-66
2022/04/15 13:07:32;;;;;;;7.30;6.28;;;;;;;;;;4975239;28;20061;-66
2022/04/15 13:09:57;;;;;;;10.98;5.47;;;;;;;;;;4968428;28;20468;-66
2022/04/15 13:12:23;;;;;;;12.13;6.40;;;;;;;;;;4972167;28;20023;-66
2022/04/15 13:14:48;;;;;;;9.10;5.45;;;;;;;;;;4982996;28;20034;-66
2022/04/15 13:17:13;;;;;;;7.07;4.88;;;;;;;;;;4988779;28;20049;-67
2022/04/15 13:19:40;;;;;;;7.35;4.95;;;;;;;;;;4972437;28;20026;-66
2022/04/15 13:22:05;;;;;;;10.02;6.15;;;;;;;;;;4974918;28;20023;-66
2022/04/15 13:24:31;;;;;;;9.32;5.93;;;;;;;;;;4976129;28;20038;-66
2022/04/15 13:26:56;;;;;;;8.75;5.65;;;;;;;;;;4978269;28;20014;-66
2022/04/15 13:29:21;;;;;;;8.35;5.15;;;;;;;;;;4980364;28;20021;-66
2022/04/15 13:31:46;;;;;;;10.13;5.93;;;;;;;;;;4978435;28;20069;-66
2022/04/15 13:34:11;;;;;;;9.33;4.83;;;;;;;;;;4979323;28;20773;-66
2022/04/15 13:36:37;;;;;;;6.50;3.53;;;;;;;;;;4973725;28;20270;-66
2022/04/15 13:39:03;;;;;;;11.15;5.32;;;;;;;;;;4976910;28;20274;-66
2022/04/15 13:41:28;;;;;;;13.55;5.28;;;;;;;;;;4974797;28;20113;-66
2022/04/15 13:43:53;;;;;;;9.93;4.60;;;;;;;;;;4976342;28;20377;-66
2022/04/15 13:46:19;;;;;;;11.05;4.95;;;;;;;;;;4979159;28;20029;-66
2022/04/15 13:48:45;;;;;;;9.88;4.82;;;;;;;;;;4984809;28;20018;-66
2022/04/15 13:51:10;;;;;;;12.80;4.87;;;;;;;;;;4983326;28;20153;-66
2022/04/15 13:56:34;;;;;;;8.18;4.68;;;;;;;;;;4986359;28;20045;-66
2022/04/15 13:59:00;;;;;;;10.23;5.10;;;;;;;;;;4978968;28;20081;-66
2022/04/15 14:01:27;;;;;;;7.15;4.50;;;;;;;;;;4974567;28;20034;-66
2022/04/15 14:03:52;;;;;;;7.85;4.95;;;;;;;;;;4975495;28;20093;-66
2022/04/15 14:06:18;;;;;;;8.60;5.03;;;;;;;;;;4987932;28;20018;-66
2022/04/15 14:08:43;;;;;;;8.95;4.97;;;;;;;;;;4980050;28;20502;-66
2022/04/15 14:11:08;;;;;;;12.63;7.40;;;;;;;;;;4977807;28;20041;-66
2022/04/15 14:13:34;;;;;;;14.27;7.18;;;;;;;;;;4972762;28;20266;-66
2022/04/15 14:16:00;;;;;;;13.80;7.68;;;;;;;;;;4977972;28;20026;-66
2022/04/15 14:18:25;;;;;;;15.82;9.13;;;;;;;;;;4977228;28;20027;-66
2022/04/15 14:20:50;;;;;;;16.00;8.77;;;;;;;;;;4985816;28;20304;-66
2022/04/15 14:23:16;;;;;;;16.92;9.95;;;;;;;;;;4976018;28;20766;-66
2022/04/15 14:25:41;;;;;;;19.17;11.30;;;;;;;;;;4983971;28;20018;-66
2022/04/15 14:28:06;;;;;;;15.27;10.17;;;;;;;;;;4981284;28;20027;-66